createdAt,value
2018-08-19T00:20:43.696Z,44.77
2018-08-19T00:23:25.277Z,40.90
2018-08-19T00:26:08.381Z,40.13
2018-08-19T00:28:49.258Z,42.13
2018-08-19T00:31:29.280Z,45.17
2018-08-19T00:34:10.201Z,48.93
2018-08-19T00:36:49.501Z,68.60
2018-08-19T00:39:36.641Z,83.50
2018-08-19T00:42:17.019Z,168.13
2018-08-19T00:44:55.964Z,198.00
2018-08-19T00:47:36.118Z,134.63
2018-08-19T00:50:18.321Z,188.83
2018-08-19T00:52:59.206Z,225.53
2018-08-19T00:55:45.466Z,354.73
2018-08-19T00:58:28.179Z,373.07
2018-08-19T01:01:10.322Z,379.23
2018-08-19T01:03:59.597Z,396.57
2018-08-19T01:06:44.583Z,398.63
2018-08-19T01:09:25.321Z,432.37
2018-08-19T01:12:04.359Z,454.73
2018-08-19T01:14:43.604Z,398.90
2018-08-19T01:17:25.604Z,411.20
2018-08-19T01:20:10.304Z,364.97
2018-08-19T01:22:50.024Z,330.73
2018-08-19T01:25:28.938Z,315.10
2018-08-19T01:28:07.502Z,273.57
2018-08-19T01:30:45.825Z,266.57
2018-08-19T01:33:25.023Z,222.20
2018-08-19T01:36:04.123Z,243.07
2018-08-19T01:38:43.779Z,218.73
2018-08-19T01:41:21.947Z,321.27
2018-08-19T01:44:09.102Z,409.20
2018-08-19T01:46:51.307Z,449.30
2018-08-19T01:49:33.703Z,704.77
2018-08-19T01:52:13.866Z,707.10
2018-08-19T01:54:54.299Z,658.83
2018-08-19T01:57:42.417Z,690.20
2018-08-19T02:00:21.881Z,605.50
2018-08-19T02:03:10.479Z,690.07
2018-08-19T02:05:48.736Z,676.20
2018-08-19T02:08:29.419Z,615.73
2018-08-19T02:11:09.939Z,616.83
2018-08-19T02:13:49.662Z,628.67
2018-08-19T02:16:28.299Z,651.20
2018-08-19T02:19:07.742Z,746.30
2018-08-19T02:21:48.659Z,688.67
2018-08-19T03:30:02.809Z,455.17
2018-08-19T03:32:41.302Z,414.30
2018-08-19T03:35:21.300Z,414.70
2018-08-19T03:38:18.142Z,319.97
2018-08-19T03:40:58.220Z,361.47
2018-08-19T03:43:37.458Z,425.70
2018-08-19T03:46:25.119Z,380.63
2018-08-19T03:49:05.460Z,381.10
2018-08-19T03:51:44.063Z,277.43
2018-08-19T03:54:22.243Z,196.93
2018-08-19T03:57:01.120Z,250.43
2018-08-19T05:23:21.613Z,543.17
2018-08-19T05:26:00.912Z,524.60
2018-08-19T05:28:39.702Z,488.13
2018-08-19T05:31:18.656Z,546.40
2018-08-19T05:33:57.067Z,717.87
2018-08-19T05:36:42.654Z,732.90
2018-08-19T05:39:23.758Z,567.13
2018-08-19T05:42:15.615Z,586.53
2018-08-19T05:44:53.674Z,705.00
2018-08-19T05:47:33.653Z,712.07
2018-08-19T05:50:12.854Z,537.97
2018-08-19T05:52:54.034Z,415.67
2018-08-19T05:55:34.573Z,401.83
2018-08-19T05:58:13.112Z,572.40
2018-08-19T06:01:00.525Z,676.07
2018-08-19T06:03:43.090Z,664.33
2018-08-19T06:06:24.914Z,735.17
2018-08-19T06:09:06.472Z,768.50
2018-08-19T06:11:51.637Z,729.73
2018-08-19T06:14:32.281Z,654.47
2018-08-19T06:17:14.516Z,543.90
2018-08-19T06:19:57.656Z,298.00
2018-08-19T06:22:42.036Z,271.50
2018-08-19T06:25:22.035Z,368.53
2018-08-19T06:28:02.032Z,595.00
2018-08-19T06:30:40.677Z,631.83
2018-08-19T06:33:20.012Z,961.13
2018-08-19T06:35:59.032Z,427.23
2018-08-19T06:38:39.076Z,1077.20
2018-08-19T06:41:23.441Z,313.43
2018-08-19T06:44:04.771Z,520.87
2018-08-19T06:46:44.109Z,284.03
2018-08-19T06:49:23.536Z,149.93
2018-08-19T06:52:02.456Z,110.17
2018-08-19T06:54:40.253Z,925.53
2018-08-19T06:57:19.130Z,941.20
2018-08-19T06:59:58.455Z,1032.27
2018-08-19T07:02:40.396Z,990.87
2018-08-19T07:17:09.609Z,1252.77
2018-08-19T07:19:50.256Z,1436.57
2018-08-19T07:22:31.832Z,765.43
2018-08-19T07:25:13.815Z,607.07
2018-08-19T07:27:53.938Z,1128.97
2018-08-19T07:30:35.014Z,1408.20
2018-08-19T07:33:13.815Z,824.90
2018-08-19T07:35:51.569Z,1214.50
2018-08-19T07:38:29.293Z,869.77
2018-08-19T07:41:07.018Z,819.33
2018-08-19T07:43:44.618Z,1448.23
2018-08-19T07:46:23.677Z,1007.10
2018-08-19T07:49:03.872Z,661.53
2018-08-19T07:51:42.199Z,1300.70
2018-08-19T07:54:20.512Z,501.03
2018-08-19T07:56:59.614Z,460.77
2018-08-19T07:59:38.996Z,946.53
2018-08-19T08:02:17.629Z,946.23
2018-08-19T08:04:56.657Z,1192.07
2018-08-19T08:07:37.360Z,1221.23
2018-08-19T08:10:17.981Z,1340.33
2018-08-19T08:13:06.332Z,1090.55
2018-08-19T08:15:48.049Z,1416.70
2018-08-19T08:18:25.911Z,1287.43
2018-08-19T08:21:11.322Z,1287.28
2018-08-19T08:23:54.032Z,834.20
2018-08-19T08:26:35.590Z,535.20
2018-08-19T08:29:13.825Z,984.75
2018-08-19T08:32:01.818Z,956.08
2018-08-19T08:34:43.796Z,666.90
2018-08-19T08:37:26.171Z,749.40
2018-08-19T08:40:09.681Z,964.78
2018-08-19T08:42:52.075Z,1050.22
2018-08-19T09:33:10.715Z,571.63
2018-08-19T09:35:52.796Z,475.62
2018-08-19T10:17:22.191Z,104.05
2018-08-19T10:20:05.174Z,184.90
2018-08-19T10:22:47.337Z,282.40
2018-08-19T10:25:26.851Z,325.65
2018-08-19T10:28:08.016Z,215.97
2018-08-19T11:24:10.411Z,587.30
2018-08-19T11:26:54.879Z,574.27
2018-08-19T11:29:41.633Z,504.72
2018-08-19T11:32:28.474Z,452.75
2018-08-19T11:35:12.924Z,426.27
2018-08-19T11:37:53.058Z,443.52
2018-08-19T11:40:35.077Z,319.85
2018-08-19T11:43:18.340Z,437.80
2018-08-19T11:45:56.037Z,345.90
2018-08-19T11:48:38.676Z,319.62
2018-08-19T11:51:24.352Z,291.23
2018-08-19T11:54:04.773Z,198.38
2018-08-19T11:56:44.073Z,194.17
2018-08-19T11:59:26.438Z,154.70
2018-08-19T12:02:08.178Z,207.72
2018-08-19T12:04:49.380Z,154.18
2018-08-19T12:07:28.636Z,122.33
2018-08-19T12:10:06.729Z,212.82
2018-08-19T12:12:52.630Z,237.80
2018-08-19T12:15:32.656Z,192.30
2018-08-19T12:18:12.874Z,310.95
2018-08-19T12:20:52.696Z,295.60
2018-08-19T12:23:33.693Z,171.70
2018-08-19T12:26:19.089Z,171.15
2018-08-19T12:28:59.758Z,220.70
2018-08-19T13:10:13.875Z,82.17
2018-08-19T13:13:00.316Z,97.02
2018-08-19T13:15:45.596Z,89.17
2018-08-19T13:18:34.435Z,97.65
2018-08-19T13:21:24.433Z,99.40
2018-08-19T13:24:04.118Z,114.80
2018-08-19T13:26:52.675Z,97.82
2018-08-19T13:29:33.669Z,149.65
2018-08-19T13:32:15.580Z,98.55
2018-08-19T13:34:53.890Z,107.90
2018-08-19T13:37:39.156Z,140.82
2018-08-19T13:40:23.594Z,101.78
2018-08-19T13:43:05.384Z,183.30
2018-08-19T13:45:48.856Z,109.90
2018-08-19T13:48:27.339Z,133.97
2018-08-19T13:51:06.072Z,125.60
2018-08-19T13:53:45.654Z,143.65
2018-08-19T13:56:25.198Z,210.23
2018-08-19T13:59:04.018Z,211.28
2018-08-19T14:01:42.370Z,350.85
2018-08-19T14:04:20.387Z,134.80
2018-08-19T14:06:58.057Z,114.52
2018-08-19T14:09:38.438Z,179.35
2018-08-19T14:12:19.261Z,139.55
2018-08-19T14:15:00.279Z,134.35
2018-08-19T14:17:43.391Z,176.35
2018-08-19T14:20:24.656Z,129.95
2018-08-19T14:23:03.181Z,130.87
2018-08-19T14:25:44.676Z,161.57
2018-08-19T14:28:26.278Z,88.15
2018-08-19T14:31:06.317Z,229.63
2018-08-19T14:33:46.722Z,155.82
2018-08-19T14:36:28.535Z,144.10
2018-08-19T14:39:08.034Z,200.47
2018-08-19T14:41:46.076Z,160.50
2018-08-19T14:44:24.231Z,103.50
2018-08-19T14:47:02.633Z,118.02
2018-08-19T14:49:40.934Z,112.90
2018-08-19T14:52:18.706Z,167.55
2018-08-19T14:54:57.616Z,188.55
2018-08-19T15:00:35.039Z,103.30
2018-08-19T15:03:12.776Z,163.60
2018-08-19T15:06:01.493Z,119.87
2018-08-19T15:08:42.175Z,277.65
2018-08-19T15:11:22.750Z,286.15
2018-08-19T15:14:08.531Z,153.15
2018-08-19T15:16:53.036Z,166.40
2018-08-19T15:19:34.815Z,133.03
2018-08-19T15:22:19.179Z,176.75
2018-08-19T15:25:01.238Z,163.32
2018-08-19T15:27:46.257Z,199.70
2018-08-19T15:30:30.333Z,256.00
2018-08-19T15:33:14.221Z,253.90
2018-08-19T15:35:53.952Z,225.18
2018-08-19T15:38:32.475Z,175.68
2018-08-19T15:41:18.815Z,134.27
2018-08-19T15:44:01.089Z,104.47
2018-08-19T15:46:43.813Z,157.47
2018-08-19T15:49:27.096Z,169.50
2018-08-19T15:52:06.471Z,155.15
2018-08-19T15:54:50.618Z,134.43
2018-08-19T15:57:30.821Z,144.25
2018-08-19T16:00:11.452Z,218.52
2018-08-19T16:02:49.373Z,217.47
2018-08-19T16:05:32.455Z,197.17
2018-08-19T16:08:12.955Z,190.80
2018-08-19T16:10:53.634Z,235.97
2018-08-19T16:13:32.797Z,191.82
2018-08-19T16:16:17.650Z,178.23
2018-08-19T16:18:58.279Z,173.32
2018-08-19T16:21:36.549Z,173.32
2018-08-19T16:24:16.017Z,146.70
2018-08-19T16:26:55.954Z,124.38
2018-08-19T16:29:34.251Z,120.53
2018-08-19T16:32:12.636Z,107.80
2018-08-19T16:34:51.598Z,102.67
2018-08-19T16:37:29.187Z,117.65
2018-08-19T16:40:12.376Z,85.55
2018-08-19T16:42:52.930Z,57.78
2018-08-19T16:45:34.615Z,52.35
2018-08-19T16:48:19.750Z,86.00
2018-08-19T16:50:59.902Z,71.57
2018-08-19T16:53:40.253Z,68.90
2018-08-19T16:56:21.551Z,258.02
2018-08-19T16:59:02.332Z,77.25
2018-08-19T17:01:45.713Z,209.25
2018-08-19T17:04:27.656Z,152.97
2018-08-19T17:07:08.391Z,177.30
2018-08-19T17:09:49.906Z,179.65
2018-08-19T17:12:31.556Z,115.72
2018-08-19T17:15:12.455Z,197.82
2018-08-19T17:17:54.975Z,294.87
2018-08-19T17:20:36.876Z,53.40
2018-08-19T17:23:20.333Z,151.50
2018-08-19T17:26:01.398Z,133.50
2018-08-19T17:28:43.993Z,211.10
2018-08-19T17:31:27.194Z,351.75
2018-08-19T17:34:13.313Z,260.55
2018-08-19T17:36:56.014Z,61.75
2018-08-19T17:39:37.934Z,146.72
2018-08-19T17:42:17.797Z,110.63
2018-08-19T17:45:01.661Z,111.95
2018-08-19T17:47:41.171Z,407.58
2018-08-19T17:50:25.632Z,116.55
2018-08-19T17:53:09.168Z,166.45
2018-08-19T17:55:49.474Z,291.08
2018-08-19T17:58:31.059Z,381.13
2018-08-19T18:01:13.795Z,533.70
2018-08-19T18:03:56.751Z,280.27
2018-08-19T18:06:40.312Z,547.45
2018-08-19T18:09:22.335Z,550.05
2018-08-19T18:12:08.532Z,676.52
2018-08-19T18:14:48.841Z,872.65
2018-08-19T18:17:26.433Z,1062.65
2018-08-19T18:20:10.193Z,1023.25
2018-08-19T18:22:52.796Z,1148.93
2018-08-19T18:25:35.179Z,1091.30
2018-08-19T18:28:33.418Z,1127.45
2018-08-19T18:31:15.297Z,1146.68
2018-08-19T18:34:05.042Z,1131.22
2018-08-19T18:36:44.512Z,1150.15
2018-08-19T18:39:26.193Z,1186.78
2018-08-19T18:42:06.051Z,1169.10
2018-08-19T18:44:48.900Z,1151.75
2018-08-19T18:47:31.897Z,971.27
2018-08-19T18:50:17.556Z,931.53
2018-08-19T18:53:00.250Z,693.77
2018-08-19T18:55:46.393Z,414.00
2018-08-19T18:58:25.090Z,333.93
2018-08-19T19:01:05.116Z,828.25
2018-08-19T19:03:45.660Z,1008.25
2018-08-19T19:06:26.630Z,1111.28
2018-08-19T19:09:07.092Z,1245.17
2018-08-19T19:11:47.831Z,1313.00
2018-08-19T19:14:31.072Z,1349.97
2018-08-19T19:17:13.055Z,1540.98
2018-08-19T19:19:54.695Z,1792.95
2018-08-19T19:22:38.532Z,1956.53
2018-08-19T19:25:21.051Z,1999.90
2018-08-19T19:28:02.912Z,1999.90
2018-08-19T19:30:43.927Z,1999.90
2018-08-19T19:33:26.674Z,1999.90
2018-08-19T19:36:09.875Z,1999.90
2018-08-19T19:38:55.811Z,1984.20
2018-08-19T19:41:37.716Z,1786.18
2018-08-19T19:44:35.883Z,1563.83
2018-08-19T19:47:17.919Z,1358.15
2018-08-19T19:50:01.822Z,894.90
2018-08-19T19:52:54.299Z,823.03
2018-08-19T19:55:38.552Z,909.97
2018-08-19T19:58:20.149Z,1036.67
2018-08-19T20:01:08.957Z,1183.67
2018-08-19T20:03:59.255Z,1371.40
2018-08-19T20:06:41.769Z,1597.43
2018-08-19T21:54:05.380Z,312.63
2018-08-19T21:56:47.701Z,200.77
2018-08-19T21:59:29.520Z,81.53
2018-08-19T22:02:11.643Z,85.13
2018-08-19T22:04:54.557Z,179.23
2018-08-19T22:07:33.005Z,538.97
2018-08-19T22:10:13.454Z,545.87
2018-08-19T22:12:53.981Z,331.50
2018-08-19T22:15:42.555Z,382.13
2018-08-19T22:18:24.702Z,138.27
2018-08-19T22:21:36.658Z,120.57
2018-08-19T22:24:14.842Z,118.77
2018-08-19T22:26:58.157Z,140.50
2018-08-19T22:29:37.903Z,188.63
2018-08-19T22:32:18.080Z,267.53
2018-08-19T22:34:56.864Z,430.40
2018-08-19T22:37:35.837Z,746.13
